sensor_id;sensor_type;location;lat;lon;timestamp;P1;durP1;ratioP1;P2;durP2;ratioP2
11504;SDS011;5809;53.262;10.408;2023-02-01T00:00:29;24.30;;;4.03;;
11504;SDS011;5809;53.262;10.408;2023-02-01T00:02:58;18.83;;;4.20;;
11504;SDS011;5809;53.262;10.408;2023-02-01T00:05:25;20.97;;;4.13;;
11504;SDS011;5809;53.262;10.408;2023-02-01T00:07:53;21.67;;;4.07;;
11504;SDS011;5809;53.262;10.408;2023-02-01T00:10:20;19.00;;;4.23;;
11504;SDS011;5809;53.262;10.408;2023-02-01T00:12:47;23.43;;;4.00;;
11504;SDS011;5809;53.262;10.408;2023-02-01T00:15:14;19.30;;;3.63;;
11504;SDS011;5809;53.262;10.408;2023-02-01T00:17:41;20.57;;;4.60;;
11504;SDS011;5809;53.262;10.408;2023-02-01T00:20:09;23.03;;;4.17;;
11504;SDS011;5809;53.262;10.408;2023-02-01T00:22:36;16.43;;;3.80;;
11504;SDS011;5809;53.262;10.408;2023-02-01T00:25:06;21.17;;;3.83;;
11504;SDS011;5809;53.262;10.408;2023-02-01T00:27:33;20.93;;;3.97;;
11504;SDS011;5809;53.262;10.408;2023-02-01T00:30:00;17.90;;;3.93;;
11504;SDS011;5809;53.262;10.408;2023-02-01T00:32:27;20.80;;;4.07;;
11504;SDS011;5809;53.262;10.408;2023-02-01T00:34:56;19.63;;;4.10;;
11504;SDS011;5809;53.262;10.408;2023-02-01T00:37:24;19.17;;;3.97;;
11504;SDS011;5809;53.262;10.408;2023-02-01T00:39:51;22.30;;;4.00;;
11504;SDS011;5809;53.262;10.408;2023-02-01T00:42:21;26.60;;;4.50;;
11504;SDS011;5809;53.262;10.408;2023-02-01T00:44:48;19.70;;;5.07;;
11504;SDS011;5809;53.262;10.408;2023-02-01T00:47:16;22.20;;;3.67;;
11504;SDS011;5809;53.262;10.408;2023-02-01T00:49:45;20.27;;;4.33;;
11504;SDS011;5809;53.262;10.408;2023-02-01T00:52:12;23.20;;;5.00;;
11504;SDS011;5809;53.262;10.408;2023-02-01T00:54:39;24.47;;;4.37;;
11504;SDS011;5809;53.262;10.408;2023-02-01T00:57:06;22.50;;;4.17;;
11504;SDS011;5809;53.262;10.408;2023-02-01T00:59:35;19.87;;;4.43;;
11504;SDS011;5809;53.262;10.408;2023-02-01T01:02:02;25.07;;;4.53;;
11504;SDS011;5809;53.262;10.408;2023-02-01T01:04:29;23.33;;;4.77;;
11504;SDS011;5809;53.262;10.408;2023-02-01T01:06:56;25.47;;;4.60;;
11504;SDS011;5809;53.262;10.408;2023-02-01T01:09:23;20.87;;;3.87;;
11504;SDS011;5809;53.262;10.408;2023-02-01T01:11:50;21.10;;;3.97;;
11504;SDS011;5809;53.262;10.408;2023-02-01T01:14:17;18.10;;;3.70;;
11504;SDS011;5809;53.262;10.408;2023-02-01T01:16:46;25.03;;;4.40;;
11504;SDS011;5809;53.262;10.408;2023-02-01T01:19:15;25.23;;;4.30;;
11504;SDS011;5809;53.262;10.408;2023-02-01T01:21:42;27.33;;;4.97;;
11504;SDS011;5809;53.262;10.408;2023-02-01T01:24:09;24.87;;;4.17;;
11504;SDS011;5809;53.262;10.408;2023-02-01T01:26:37;31.97;;;5.07;;
11504;SDS011;5809;53.262;10.408;2023-02-01T01:29:04;27.77;;;4.97;;
11504;SDS011;5809;53.262;10.408;2023-02-01T01:31:31;28.43;;;5.27;;
11504;SDS011;5809;53.262;10.408;2023-02-01T01:34:01;28.70;;;5.20;;
11504;SDS011;5809;53.262;10.408;2023-02-01T01:36:28;26.37;;;4.70;;
11504;SDS011;5809;53.262;10.408;2023-02-01T01:38:56;24.00;;;4.20;;
11504;SDS011;5809;53.262;10.408;2023-02-01T01:41:23;20.37;;;4.03;;
11504;SDS011;5809;53.262;10.408;2023-02-01T01:43:52;26.33;;;4.60;;
11504;SDS011;5809;53.262;10.408;2023-02-01T01:46:22;20.20;;;4.40;;
11504;SDS011;5809;53.262;10.408;2023-02-01T01:48:51;27.60;;;4.70;;
11504;SDS011;5809;53.262;10.408;2023-02-01T01:51:23;26.33;;;5.83;;
11504;SDS011;5809;53.262;10.408;2023-02-01T01:53:55;26.00;;;5.57;;
11504;SDS011;5809;53.262;10.408;2023-02-01T01:56:26;21.10;;;4.43;;
11504;SDS011;5809;53.262;10.408;2023-02-01T01:58:55;21.73;;;4.30;;
11504;SDS011;5809;53.262;10.408;2023-02-01T02:01:23;27.43;;;4.97;;
11504;SDS011;5809;53.262;10.408;2023-02-01T02:03:50;21.00;;;4.30;;
11504;SDS011;5809;53.262;10.408;2023-02-01T02:06:20;27.03;;;4.70;;
11504;SDS011;5809;53.262;10.408;2023-02-01T02:08:51;25.27;;;4.87;;
11504;SDS011;5809;53.262;10.408;2023-02-01T02:11:18;25.10;;;4.97;;
11504;SDS011;5809;53.262;10.408;2023-02-01T02:13:46;32.83;;;5.10;;
11504;SDS011;5809;53.262;10.408;2023-02-01T02:16:19;23.37;;;4.57;;
11504;SDS011;5809;53.262;10.408;2023-02-01T02:18:58;29.77;;;4.83;;
11504;SDS011;5809;53.262;10.408;2023-02-01T02:21:45;25.60;;;5.30;;
11504;SDS011;5809;53.262;10.408;2023-02-01T02:24:34;27.03;;;5.30;;
11504;SDS011;5809;53.262;10.408;2023-02-01T02:27:11;32.80;;;5.43;;
11504;SDS011;5809;53.262;10.408;2023-02-01T02:30:11;32.33;;;5.40;;
11504;SDS011;5809;53.262;10.408;2023-02-01T02:35:28;25.60;;;5.33;;
11504;SDS011;5809;53.262;10.408;2023-02-01T02:38:02;29.93;;;5.50;;
11504;SDS011;5809;53.262;10.408;2023-02-01T02:40:32;24.87;;;4.77;;
11504;SDS011;5809;53.262;10.408;2023-02-01T02:43:02;25.70;;;5.30;;
11504;SDS011;5809;53.262;10.408;2023-02-01T02:45:49;22.03;;;5.10;;
11504;SDS011;5809;53.262;10.408;2023-02-01T02:48:37;24.43;;;5.57;;
11504;SDS011;5809;53.262;10.408;2023-02-01T02:51:07;26.57;;;5.83;;
11504;SDS011;5809;53.262;10.408;2023-02-01T02:53:56;23.43;;;4.77;;
11504;SDS011;5809;53.262;10.408;2023-02-01T02:56:58;29.37;;;4.87;;
11504;SDS011;5809;53.262;10.408;2023-02-01T02:59:44;24.47;;;5.00;;
11504;SDS011;5809;53.262;10.408;2023-02-01T03:02:30;31.87;;;5.47;;
11504;SDS011;5809;53.262;10.408;2023-02-01T03:05:15;31.03;;;5.20;;
11504;SDS011;5809;53.262;10.408;2023-02-01T03:07:48;28.33;;;4.67;;
11504;SDS011;5809;53.262;10.408;2023-02-01T03:10:17;25.07;;;5.37;;
11504;SDS011;5809;53.262;10.408;2023-02-01T03:12:49;23.40;;;5.00;;
11504;SDS011;5809;53.262;10.408;2023-02-01T03:15:21;25.33;;;4.70;;
11504;SDS011;5809;53.262;10.408;2023-02-01T03:17:52;31.40;;;4.90;;
11504;SDS011;5809;53.262;10.408;2023-02-01T03:20:24;33.77;;;5.03;;
11504;SDS011;5809;53.262;10.408;2023-02-01T03:22:53;28.07;;;5.57;;
11504;SDS011;5809;53.262;10.408;2023-02-01T03:25:21;21.13;;;4.63;;
11504;SDS011;5809;53.262;10.408;2023-02-01T03:27:51;20.47;;;4.57;;
11504;SDS011;5809;53.262;10.408;2023-02-01T03:30:23;25.53;;;4.87;;
11504;SDS011;5809;53.262;10.408;2023-02-01T03:32:51;24.07;;;4.97;;
11504;SDS011;5809;53.262;10.408;2023-02-01T03:35:25;27.50;;;4.73;;
11504;SDS011;5809;53.262;10.408;2023-02-01T03:38:02;20.50;;;4.20;;
11504;SDS011;5809;53.262;10.408;2023-02-01T03:40:35;20.37;;;4.63;;
11504;SDS011;5809;53.262;10.408;2023-02-01T03:43:04;13.33;;;3.43;;
11504;SDS011;5809;53.262;10.408;2023-02-01T03:45:33;13.10;;;3.13;;
11504;SDS011;5809;53.262;10.408;2023-02-01T03:48:04;22.10;;;4.40;;
11504;SDS011;5809;53.262;10.408;2023-02-01T03:50:31;21.67;;;4.67;;
11504;SDS011;5809;53.262;10.408;2023-02-01T03:53:03;24.33;;;4.60;;
11504;SDS011;5809;53.262;10.408;2023-02-01T03:55:33;20.60;;;3.67;;
11504;SDS011;5809;53.262;10.408;2023-02-01T03:58:03;22.03;;;4.60;;
11504;SDS011;5809;53.262;10.408;2023-02-01T04:00:34;14.37;;;3.30;;
11504;SDS011;5809;53.262;10.408;2023-02-01T04:03:01;14.63;;;2.23;;
11504;SDS011;5809;53.262;10.408;2023-02-01T04:05:29;12.00;;;2.30;;
11504;SDS011;5809;53.262;10.408;2023-02-01T04:07:57;8.13;;;1.33;;
11504;SDS011;5809;53.262;10.408;2023-02-01T04:10:25;8.10;;;1.43;;
11504;SDS011;5809;53.262;10.408;2023-02-01T04:12:53;4.80;;;1.40;;
11504;SDS011;5809;53.262;10.408;2023-02-01T04:15:20;11.00;;;1.70;;
11504;SDS011;5809;53.262;10.408;2023-02-01T04:17:47;4.60;;;1.30;;
11504;SDS011;5809;53.262;10.408;2023-02-01T04:20:14;8.33;;;1.20;;
11504;SDS011;5809;53.262;10.408;2023-02-01T04:22:42;9.73;;;2.10;;
11504;SDS011;5809;53.262;10.408;2023-02-01T04:25:09;7.77;;;1.80;;
11504;SDS011;5809;53.262;10.408;2023-02-01T04:27:37;11.17;;;2.30;;
11504;SDS011;5809;53.262;10.408;2023-02-01T04:30:05;7.23;;;1.50;;
11504;SDS011;5809;53.262;10.408;2023-02-01T04:32:34;7.37;;;1.43;;
11504;SDS011;5809;53.262;10.408;2023-02-01T04:35:01;3.80;;;1.20;;
11504;SDS011;5809;53.262;10.408;2023-02-01T04:37:29;5.53;;;1.43;;
11504;SDS011;5809;53.262;10.408;2023-02-01T04:39:56;4.37;;;1.37;;
11504;SDS011;5809;53.262;10.408;2023-02-01T04:42:23;5.80;;;1.30;;
11504;SDS011;5809;53.262;10.408;2023-02-01T04:44:52;4.10;;;1.13;;
11504;SDS011;5809;53.262;10.408;2023-02-01T04:47:19;10.10;;;1.90;;
11504;SDS011;5809;53.262;10.408;2023-02-01T04:49:46;8.43;;;1.53;;
11504;SDS011;5809;53.262;10.408;2023-02-01T04:52:13;8.77;;;1.90;;
11504;SDS011;5809;53.262;10.408;2023-02-01T04:54:40;7.57;;;2.00;;
11504;SDS011;5809;53.262;10.408;2023-02-01T04:57:07;10.47;;;1.90;;
11504;SDS011;5809;53.262;10.408;2023-02-01T04:59:36;7.20;;;1.50;;
11504;SDS011;5809;53.262;10.408;2023-02-01T05:02:04;8.43;;;1.73;;
11504;SDS011;5809;53.262;10.408;2023-02-01T05:04:31;8.10;;;2.07;;
11504;SDS011;5809;53.262;10.408;2023-02-01T05:06:59;7.90;;;2.00;;
11504;SDS011;5809;53.262;10.408;2023-02-01T05:09:26;8.30;;;1.63;;
11504;SDS011;5809;53.262;10.408;2023-02-01T05:11:53;8.70;;;1.80;;
11504;SDS011;5809;53.262;10.408;2023-02-01T05:14:38;6.77;;;1.77;;
11504;SDS011;5809;53.262;10.408;2023-02-01T05:17:06;4.73;;;1.50;;
11504;SDS011;5809;53.262;10.408;2023-02-01T05:19:33;4.20;;;1.17;;
11504;SDS011;5809;53.262;10.408;2023-02-01T05:22:01;6.43;;;1.60;;
11504;SDS011;5809;53.262;10.408;2023-02-01T05:24:27;5.37;;;1.80;;
11504;SDS011;5809;53.262;10.408;2023-02-01T05:26:55;5.47;;;1.77;;
11504;SDS011;5809;53.262;10.408;2023-02-01T05:29:22;7.53;;;1.47;;
11504;SDS011;5809;53.262;10.408;2023-02-01T05:31:49;5.03;;;1.80;;
11504;SDS011;5809;53.262;10.408;2023-02-01T05:34:17;7.40;;;1.53;;
11504;SDS011;5809;53.262;10.408;2023-02-01T05:36:45;4.83;;;1.73;;
11504;SDS011;5809;53.262;10.408;2023-02-01T05:39:12;5.30;;;1.83;;
11504;SDS011;5809;53.262;10.408;2023-02-01T05:41:39;5.10;;;1.80;;
11504;SDS011;5809;53.262;10.408;2023-02-01T05:44:06;4.07;;;1.57;;
11504;SDS011;5809;53.262;10.408;2023-02-01T05:46:33;3.33;;;1.57;;
11504;SDS011;5809;53.262;10.408;2023-02-01T05:49:01;6.30;;;1.33;;
11504;SDS011;5809;53.262;10.408;2023-02-01T05:51:29;3.63;;;1.40;;
11504;SDS011;5809;53.262;10.408;2023-02-01T05:53:56;4.77;;;1.13;;
11504;SDS011;5809;53.262;10.408;2023-02-01T05:56:24;1.87;;;0.80;;
11504;SDS011;5809;53.262;10.408;2023-02-01T05:58:51;2.43;;;0.83;;
11504;SDS011;5809;53.262;10.408;2023-02-01T06:01:18;1.70;;;0.70;;
11504;SDS011;5809;53.262;10.408;2023-02-01T06:03:45;3.60;;;1.00;;
11504;SDS011;5809;53.262;10.408;2023-02-01T06:06:12;3.70;;;1.10;;
11504;SDS011;5809;53.262;10.408;2023-02-01T06:08:41;3.53;;;1.30;;
11504;SDS011;5809;53.262;10.408;2023-02-01T06:11:08;4.90;;;1.77;;
11504;SDS011;5809;53.262;10.408;2023-02-01T06:13:35;4.00;;;1.30;;
11504;SDS011;5809;53.262;10.408;2023-02-01T06:16:03;6.30;;;1.37;;
11504;SDS011;5809;53.262;10.408;2023-02-01T06:18:32;6.77;;;1.63;;
11504;SDS011;5809;53.262;10.408;2023-02-01T06:20:59;4.17;;;1.70;;
11504;SDS011;5809;53.262;10.408;2023-02-01T06:23:27;3.17;;;1.00;;
11504;SDS011;5809;53.262;10.408;2023-02-01T06:25:59;7.07;;;0.97;;
11504;SDS011;5809;53.262;10.408;2023-02-01T06:28:27;3.10;;;1.00;;
11504;SDS011;5809;53.262;10.408;2023-02-01T06:30:54;2.87;;;0.90;;
11504;SDS011;5809;53.262;10.408;2023-02-01T06:33:23;2.97;;;1.43;;
11504;SDS011;5809;53.262;10.408;2023-02-01T06:35:55;3.17;;;1.27;;
11504;SDS011;5809;53.262;10.408;2023-02-01T06:38:23;1.93;;;0.80;;
11504;SDS011;5809;53.262;10.408;2023-02-01T06:40:51;3.47;;;1.00;;
11504;SDS011;5809;53.262;10.408;2023-02-01T06:43:21;5.23;;;1.10;;
11504;SDS011;5809;53.262;10.408;2023-02-01T06:45:48;2.53;;;1.00;;
11504;SDS011;5809;53.262;10.408;2023-02-01T06:48:15;1.73;;;0.90;;
11504;SDS011;5809;53.262;10.408;2023-02-01T06:50:42;2.73;;;1.30;;
11504;SDS011;5809;53.262;10.408;2023-02-01T06:53:09;5.57;;;1.50;;
11504;SDS011;5809;53.262;10.408;2023-02-01T06:55:37;3.20;;;1.23;;
11504;SDS011;5809;53.262;10.408;2023-02-01T06:58:04;2.27;;;1.27;;
11504;SDS011;5809;53.262;10.408;2023-02-01T07:00:32;5.23;;;1.30;;
11504;SDS011;5809;53.262;10.408;2023-02-01T07:03:00;4.47;;;1.23;;
11504;SDS011;5809;53.262;10.408;2023-02-01T07:05:27;5.30;;;1.53;;
11504;SDS011;5809;53.262;10.408;2023-02-01T07:07:54;1.67;;;1.20;;
11504;SDS011;5809;53.262;10.408;2023-02-01T07:10:21;7.23;;;1.30;;
11504;SDS011;5809;53.262;10.408;2023-02-01T07:12:48;7.50;;;1.63;;
11504;SDS011;5809;53.262;10.408;2023-02-01T07:15:15;4.87;;;1.53;;
11504;SDS011;5809;53.262;10.408;2023-02-01T07:17:44;5.27;;;1.30;;
11504;SDS011;5809;53.262;10.408;2023-02-01T07:20:12;4.50;;;1.63;;
11504;SDS011;5809;53.262;10.408;2023-02-01T07:22:39;5.47;;;1.50;;
11504;SDS011;5809;53.262;10.408;2023-02-01T07:25:07;4.80;;;1.20;;
11504;SDS011;5809;53.262;10.408;2023-02-01T07:27:34;11.37;;;1.87;;
11504;SDS011;5809;53.262;10.408;2023-02-01T07:30:01;6.13;;;1.70;;
11504;SDS011;5809;53.262;10.408;2023-02-01T07:32:28;6.70;;;1.37;;
11504;SDS011;5809;53.262;10.408;2023-02-01T07:34:57;10.03;;;2.27;;
11504;SDS011;5809;53.262;10.408;2023-02-01T07:37:24;9.03;;;2.20;;
11504;SDS011;5809;53.262;10.408;2023-02-01T07:39:51;8.60;;;1.97;;
11504;SDS011;5809;53.262;10.408;2023-02-01T07:42:18;12.13;;;2.20;;
11504;SDS011;5809;53.262;10.408;2023-02-01T07:44:45;12.63;;;2.57;;
11504;SDS011;5809;53.262;10.408;2023-02-01T07:47:13;14.13;;;2.73;;
11504;SDS011;5809;53.262;10.408;2023-02-01T07:49:40;14.13;;;2.50;;
11504;SDS011;5809;53.262;10.408;2023-02-01T07:52:08;12.97;;;2.70;;
11504;SDS011;5809;53.262;10.408;2023-02-01T07:54:38;14.10;;;3.27;;
11504;SDS011;5809;53.262;10.408;2023-02-01T07:57:05;16.37;;;3.30;;
11504;SDS011;5809;53.262;10.408;2023-02-01T07:59:33;22.23;;;3.10;;
11504;SDS011;5809;53.262;10.408;2023-02-01T08:02:20;15.23;;;3.87;;
11504;SDS011;5809;53.262;10.408;2023-02-01T08:04:47;21.20;;;3.23;;
11504;SDS011;5809;53.262;10.408;2023-02-01T08:07:15;17.37;;;3.43;;
11504;SDS011;5809;53.262;10.408;2023-02-01T08:09:42;18.37;;;3.70;;
11504;SDS011;5809;53.262;10.408;2023-02-01T08:12:09;23.37;;;5.83;;
11504;SDS011;5809;53.262;10.408;2023-02-01T08:14:37;17.03;;;4.20;;
11504;SDS011;5809;53.262;10.408;2023-02-01T08:17:05;20.53;;;3.87;;
11504;SDS011;5809;53.262;10.408;2023-02-01T08:19:33;16.47;;;3.53;;
11504;SDS011;5809;53.262;10.408;2023-02-01T08:22:00;21.30;;;3.57;;
11504;SDS011;5809;53.262;10.408;2023-02-01T08:24:33;17.10;;;3.03;;
11504;SDS011;5809;53.262;10.408;2023-02-01T08:27:00;15.53;;;3.13;;
11504;SDS011;5809;53.262;10.408;2023-02-01T08:29:27;17.90;;;3.43;;
11504;SDS011;5809;53.262;10.408;2023-02-01T08:31:54;13.77;;;3.30;;
11504;SDS011;5809;53.262;10.408;2023-02-01T08:34:21;14.90;;;3.30;;
11504;SDS011;5809;53.262;10.408;2023-02-01T08:36:49;19.60;;;3.80;;
11504;SDS011;5809;53.262;10.408;2023-02-01T08:39:18;20.13;;;3.30;;
11504;SDS011;5809;53.262;10.408;2023-02-01T08:41:46;18.93;;;5.10;;
11504;SDS011;5809;53.262;10.408;2023-02-01T08:44:34;16.23;;;2.93;;
11504;SDS011;5809;53.262;10.408;2023-02-01T08:47:01;15.77;;;2.97;;
11504;SDS011;5809;53.262;10.408;2023-02-01T08:49:28;19.90;;;4.30;;
11504;SDS011;5809;53.262;10.408;2023-02-01T08:51:56;19.13;;;3.60;;
11504;SDS011;5809;53.262;10.408;2023-02-01T08:54:23;25.23;;;4.30;;
11504;SDS011;5809;53.262;10.408;2023-02-01T08:56:51;22.47;;;3.93;;
11504;SDS011;5809;53.262;10.408;2023-02-01T08:59:19;22.10;;;3.87;;
11504;SDS011;5809;53.262;10.408;2023-02-01T09:01:46;19.33;;;3.83;;
11504;SDS011;5809;53.262;10.408;2023-02-01T09:04:13;18.73;;;3.55;;
11504;SDS011;5809;53.262;10.408;2023-02-01T09:06:40;15.00;;;3.90;;
11504;SDS011;5809;53.262;10.408;2023-02-01T09:09:07;17.47;;;3.77;;
11504;SDS011;5809;53.262;10.408;2023-02-01T09:11:35;15.00;;;3.50;;
11504;SDS011;5809;53.262;10.408;2023-02-01T09:14:03;19.87;;;4.53;;
11504;SDS011;5809;53.262;10.408;2023-02-01T09:16:31;13.43;;;3.13;;
11504;SDS011;5809;53.262;10.408;2023-02-01T09:18:58;13.90;;;3.07;;
11504;SDS011;5809;53.262;10.408;2023-02-01T09:21:25;15.97;;;3.30;;
11504;SDS011;5809;53.262;10.408;2023-02-01T09:23:52;11.63;;;2.77;;
11504;SDS011;5809;53.262;10.408;2023-02-01T09:26:19;20.70;;;2.90;;
11504;SDS011;5809;53.262;10.408;2023-02-01T09:28:46;12.13;;;3.20;;
11504;SDS011;5809;53.262;10.408;2023-02-01T09:31:15;16.50;;;3.03;;
11504;SDS011;5809;53.262;10.408;2023-02-01T09:33:42;19.17;;;4.23;;
11504;SDS011;5809;53.262;10.408;2023-02-01T09:36:09;15.37;;;3.57;;
11504;SDS011;5809;53.262;10.408;2023-02-01T09:38:36;16.70;;;3.03;;
11504;SDS011;5809;53.262;10.408;2023-02-01T09:41:07;15.40;;;3.78;;
11504;SDS011;5809;53.262;10.408;2023-02-01T09:43:44;14.90;;;3.22;;
11504;SDS011;5809;53.262;10.408;2023-02-01T09:46:18;18.88;;;4.05;;
11504;SDS011;5809;53.262;10.408;2023-02-01T09:48:46;16.50;;;4.05;;
11504;SDS011;5809;53.262;10.408;2023-02-01T09:51:15;16.23;;;3.25;;
11504;SDS011;5809;53.262;10.408;2023-02-01T09:53:44;10.63;;;2.40;;
11504;SDS011;5809;53.262;10.408;2023-02-01T09:56:18;14.77;;;3.30;;
11504;SDS011;5809;53.262;10.408;2023-02-01T09:58:52;14.15;;;2.83;;
11504;SDS011;5809;53.262;10.408;2023-02-01T10:01:26;18.63;;;3.80;;
11504;SDS011;5809;53.262;10.408;2023-02-01T10:03:56;13.88;;;3.17;;
11504;SDS011;5809;53.262;10.408;2023-02-01T10:06:33;15.18;;;3.10;;
11504;SDS011;5809;53.262;10.408;2023-02-01T10:09:13;12.10;;;3.13;;
11504;SDS011;5809;53.262;10.408;2023-02-01T10:11:49;14.33;;;3.50;;
11504;SDS011;5809;53.262;10.408;2023-02-01T10:17:23;14.73;;;3.67;;
11504;SDS011;5809;53.262;10.408;2023-02-01T10:19:55;13.40;;;3.00;;
11504;SDS011;5809;53.262;10.408;2023-02-01T10:22:30;17.60;;;3.10;;
11504;SDS011;5809;53.262;10.408;2023-02-01T10:25:03;18.77;;;3.47;;
11504;SDS011;5809;53.262;10.408;2023-02-01T10:27:33;21.77;;;4.43;;
11504;SDS011;5809;53.262;10.408;2023-02-01T10:30:04;14.63;;;3.50;;
11504;SDS011;5809;53.262;10.408;2023-02-01T10:32:34;25.93;;;5.23;;
11504;SDS011;5809;53.262;10.408;2023-02-01T10:35:02;16.73;;;3.83;;
11504;SDS011;5809;53.262;10.408;2023-02-01T10:37:36;18.17;;;3.57;;
11504;SDS011;5809;53.262;10.408;2023-02-01T10:40:09;15.63;;;3.37;;
11504;SDS011;5809;53.262;10.408;2023-02-01T10:42:46;23.83;;;3.60;;
11504;SDS011;5809;53.262;10.408;2023-02-01T10:45:16;17.13;;;3.40;;
11504;SDS011;5809;53.262;10.408;2023-02-01T10:47:45;20.13;;;4.53;;
11504;SDS011;5809;53.262;10.408;2023-02-01T10:50:16;23.00;;;3.87;;
11504;SDS011;5809;53.262;10.408;2023-02-01T10:52:45;18.07;;;3.17;;
11504;SDS011;5809;53.262;10.408;2023-02-01T10:55:26;18.23;;;3.50;;
11504;SDS011;5809;53.262;10.408;2023-02-01T10:57:59;15.97;;;3.17;;
11504;SDS011;5809;53.262;10.408;2023-02-01T11:00:28;21.27;;;3.53;;
11504;SDS011;5809;53.262;10.408;2023-02-01T11:05:57;16.20;;;3.43;;
11504;SDS011;5809;53.262;10.408;2023-02-01T11:08:25;14.97;;;2.90;;
11504;SDS011;5809;53.262;10.408;2023-02-01T11:10:57;16.97;;;2.97;;
11504;SDS011;5809;53.262;10.408;2023-02-01T11:13:28;18.07;;;3.90;;
11504;SDS011;5809;53.262;10.408;2023-02-01T11:15:58;20.73;;;3.43;;
11504;SDS011;5809;53.262;10.408;2023-02-01T11:18:30;15.17;;;2.97;;
11504;SDS011;5809;53.262;10.408;2023-02-01T11:21:02;21.83;;;3.17;;
11504;SDS011;5809;53.262;10.408;2023-02-01T11:23:31;14.93;;;3.00;;
11504;SDS011;5809;53.262;10.408;2023-02-01T11:26:02;19.97;;;3.30;;
11504;SDS011;5809;53.262;10.408;2023-02-01T11:28:37;17.50;;;3.83;;
11504;SDS011;5809;53.262;10.408;2023-02-01T11:31:05;19.87;;;3.57;;
11504;SDS011;5809;53.262;10.408;2023-02-01T11:33:35;18.43;;;3.83;;
11504;SDS011;5809;53.262;10.408;2023-02-01T11:36:07;17.30;;;3.80;;
11504;SDS011;5809;53.262;10.408;2023-02-01T11:38:35;17.83;;;3.47;;
11504;SDS011;5809;53.262;10.408;2023-02-01T11:41:12;15.50;;;3.47;;
11504;SDS011;5809;53.262;10.408;2023-02-01T11:43:49;11.47;;;3.77;;
11504;SDS011;5809;53.262;10.408;2023-02-01T11:46:17;13.07;;;2.93;;
11504;SDS011;5809;53.262;10.408;2023-02-01T11:48:50;20.23;;;4.30;;
11504;SDS011;5809;53.262;10.408;2023-02-01T11:51:22;15.73;;;3.80;;
11504;SDS011;5809;53.262;10.408;2023-02-01T11:54:09;14.87;;;3.33;;
11504;SDS011;5809;53.262;10.408;2023-02-01T11:56:41;15.33;;;3.33;;
11504;SDS011;5809;53.262;10.408;2023-02-01T11:59:22;14.57;;;3.63;;
11504;SDS011;5809;53.262;10.408;2023-02-01T12:02:03;16.63;;;3.50;;
11504;SDS011;5809;53.262;10.408;2023-02-01T12:07:38;15.67;;;3.63;;
11504;SDS011;5809;53.262;10.408;2023-02-01T12:10:12;14.23;;;2.77;;
11504;SDS011;5809;53.262;10.408;2023-02-01T12:12:45;18.07;;;2.93;;
11504;SDS011;5809;53.262;10.408;2023-02-01T12:15:22;17.53;;;3.40;;
11504;SDS011;5809;53.262;10.408;2023-02-01T12:17:58;15.27;;;3.33;;
11504;SDS011;5809;53.262;10.408;2023-02-01T12:20:58;20.67;;;3.60;;
11504;SDS011;5809;53.262;10.408;2023-02-01T12:23:33;14.47;;;2.87;;
11504;SDS011;5809;53.262;10.408;2023-02-01T12:26:21;10.23;;;2.20;;
11504;SDS011;5809;53.262;10.408;2023-02-01T12:29:05;3.83;;;1.27;;
11504;SDS011;5809;53.262;10.408;2023-02-01T12:31:48;3.97;;;1.00;;
11504;SDS011;5809;53.262;10.408;2023-02-01T12:34:24;4.47;;;1.07;;
11504;SDS011;5809;53.262;10.408;2023-02-01T12:37:06;3.27;;;0.90;;
11504;SDS011;5809;53.262;10.408;2023-02-01T12:39:45;6.83;;;1.33;;
11504;SDS011;5809;53.262;10.408;2023-02-01T12:42:16;3.77;;;1.10;;
11504;SDS011;5809;53.262;10.408;2023-02-01T12:44:46;2.23;;;1.23;;
11504;SDS011;5809;53.262;10.408;2023-02-01T12:47:20;0.83;;;0.63;;
11504;SDS011;5809;53.262;10.408;2023-02-01T12:49:51;3.93;;;0.70;;
11504;SDS011;5809;53.262;10.408;2023-02-01T12:52:24;0.63;;;0.50;;
11504;SDS011;5809;53.262;10.408;2023-02-01T12:54:55;2.13;;;0.70;;
11504;SDS011;5809;53.262;10.408;2023-02-01T12:57:28;2.20;;;0.30;;
11504;SDS011;5809;53.262;10.408;2023-02-01T13:00:00;0.63;;;0.40;;
11504;SDS011;5809;53.262;10.408;2023-02-01T13:02:35;3.37;;;1.53;;
11504;SDS011;5809;53.262;10.408;2023-02-01T13:05:11;7.63;;;4.50;;
11504;SDS011;5809;53.262;10.408;2023-02-01T13:07:41;7.23;;;4.60;;
11504;SDS011;5809;53.262;10.408;2023-02-01T13:10:13;1.60;;;0.90;;
11504;SDS011;5809;53.262;10.408;2023-02-01T13:12:43;0.80;;;0.60;;
11504;SDS011;5809;53.262;10.408;2023-02-01T13:15:12;1.60;;;0.53;;
11504;SDS011;5809;53.262;10.408;2023-02-01T13:17:41;1.70;;;0.67;;
11504;SDS011;5809;53.262;10.408;2023-02-01T13:20:16;1.03;;;0.63;;
11504;SDS011;5809;53.262;10.408;2023-02-01T13:22:45;0.90;;;0.63;;
11504;SDS011;5809;53.262;10.408;2023-02-01T13:25:15;0.70;;;0.47;;
11504;SDS011;5809;53.262;10.408;2023-02-01T13:27:48;0.93;;;0.57;;
11504;SDS011;5809;53.262;10.408;2023-02-01T13:30:17;1.50;;;0.73;;
11504;SDS011;5809;53.262;10.408;2023-02-01T13:32:53;1.63;;;0.83;;
11504;SDS011;5809;53.262;10.408;2023-02-01T13:38:11;4.07;;;2.10;;
11504;SDS011;5809;53.262;10.408;2023-02-01T13:40:59;0.63;;;0.63;;
11504;SDS011;5809;53.262;10.408;2023-02-01T13:43:30;0.47;;;0.47;;
11504;SDS011;5809;53.262;10.408;2023-02-01T13:46:02;1.47;;;0.80;;
11504;SDS011;5809;53.262;10.408;2023-02-01T13:48:33;1.97;;;0.73;;
11504;SDS011;5809;53.262;10.408;2023-02-01T13:51:03;1.87;;;0.50;;
11504;SDS011;5809;53.262;10.408;2023-02-01T13:53:31;1.00;;;0.40;;
11504;SDS011;5809;53.262;10.408;2023-02-01T13:56:00;0.47;;;0.40;;
11504;SDS011;5809;53.262;10.408;2023-02-01T13:58:32;0.57;;;0.40;;
11504;SDS011;5809;53.262;10.408;2023-02-01T14:03:47;0.93;;;0.50;;
11504;SDS011;5809;53.262;10.408;2023-02-01T14:06:16;0.33;;;0.33;;
11504;SDS011;5809;53.262;10.408;2023-02-01T14:09:15;0.50;;;0.40;;
11504;SDS011;5809;53.262;10.408;2023-02-01T14:11:47;1.13;;;0.40;;
11504;SDS011;5809;53.262;10.408;2023-02-01T14:22:45;3.70;;;0.90;;
11504;SDS011;5809;53.262;10.408;2023-02-01T14:25:16;2.60;;;0.60;;
11504;SDS011;5809;53.262;10.408;2023-02-01T14:27:45;1.43;;;0.67;;
11504;SDS011;5809;53.262;10.408;2023-02-01T14:30:14;1.40;;;0.73;;
11504;SDS011;5809;53.262;10.408;2023-02-01T14:32:42;1.47;;;0.67;;
11504;SDS011;5809;53.262;10.408;2023-02-01T14:35:16;2.70;;;0.70;;
11504;SDS011;5809;53.262;10.408;2023-02-01T14:37:46;3.87;;;1.10;;
11504;SDS011;5809;53.262;10.408;2023-02-01T14:40:20;1.83;;;0.70;;
11504;SDS011;5809;53.262;10.408;2023-02-01T14:42:51;2.60;;;1.00;;
11504;SDS011;5809;53.262;10.408;2023-02-01T14:51:13;6.27;;;1.53;;
11504;SDS011;5809;53.262;10.408;2023-02-01T14:53:41;8.10;;;1.50;;
11504;SDS011;5809;53.262;10.408;2023-02-01T14:56:09;7.27;;;2.03;;
11504;SDS011;5809;53.262;10.408;2023-02-01T14:58:41;7.63;;;1.70;;
11504;SDS011;5809;53.262;10.408;2023-02-01T15:01:17;6.40;;;1.40;;
11504;SDS011;5809;53.262;10.408;2023-02-01T15:03:49;8.67;;;1.83;;
11504;SDS011;5809;53.262;10.408;2023-02-01T15:06:22;7.27;;;1.63;;
11504;SDS011;5809;53.262;10.408;2023-02-01T15:08:53;3.83;;;1.00;;
11504;SDS011;5809;53.262;10.408;2023-02-01T15:11:23;7.20;;;1.03;;
11504;SDS011;5809;53.262;10.408;2023-02-01T15:13:52;11.57;;;1.30;;
11504;SDS011;5809;53.262;10.408;2023-02-01T15:16:22;4.17;;;1.20;;
11504;SDS011;5809;53.262;10.408;2023-02-01T15:18:50;5.20;;;1.00;;
11504;SDS011;5809;53.262;10.408;2023-02-01T15:21:32;6.90;;;1.23;;
11504;SDS011;5809;53.262;10.408;2023-02-01T15:24:10;15.70;;;2.43;;
11504;SDS011;5809;53.262;10.408;2023-02-01T15:26:37;12.43;;;1.70;;
11504;SDS011;5809;53.262;10.408;2023-02-01T15:29:08;3.17;;;1.30;;
11504;SDS011;5809;53.262;10.408;2023-02-01T15:31:38;3.53;;;1.50;;